createdAt,value
2018-02-18T10:40:32.908Z,40.14
2018-02-18T10:41:36.340Z,41.71
2018-02-18T10:42:39.717Z,40.22
2018-02-18T10:43:43.351Z,41.00
2018-02-18T10:44:46.804Z,40.13
2018-02-18T10:45:50.373Z,40.81
2018-02-18T10:46:53.975Z,40.44
2018-02-18T10:47:57.604Z,40.21
2018-02-18T10:49:01.224Z,40.14
2018-02-18T10:50:04.638Z,40.16
2018-02-18T10:51:08.118Z,40.57
2018-02-18T10:52:11.510Z,40.81
2018-02-18T10:53:14.974Z,42.39
2018-02-18T10:54:19.712Z,40.06
2018-02-18T10:55:23.155Z,42.20
2018-02-18T10:56:26.579Z,40.32
2018-02-18T10:57:29.956Z,40.63
2018-02-18T10:58:33.447Z,39.99
2018-02-18T11:10:28.563Z,41.93
2018-02-18T11:11:31.731Z,40.62
2018-02-18T11:12:34.948Z,39.92
2018-02-18T11:13:38.198Z,40.21
2018-02-18T11:14:41.383Z,40.01
2018-02-18T11:15:44.674Z,40.08
2018-02-18T11:16:47.797Z,40.07
2018-02-18T11:17:56.322Z,40.09
2018-02-18T11:18:59.470Z,40.13
2018-02-18T11:20:02.533Z,40.14
2018-02-18T11:21:05.847Z,40.90
2018-02-18T11:22:08.897Z,40.42
2018-02-18T11:23:11.953Z,40.19
2018-02-18T11:24:14.968Z,40.25
2018-02-18T11:25:18.667Z,40.13
2018-02-18T11:26:21.722Z,40.05
2018-02-18T11:27:24.783Z,40.02
2018-02-18T11:28:27.828Z,39.96
2018-02-18T11:29:30.868Z,40.01
2018-02-18T11:30:33.914Z,40.00
2018-02-18T11:31:37.018Z,40.05
2018-02-18T11:32:40.062Z,39.98
2018-02-18T11:33:43.070Z,40.09
2018-02-18T11:34:46.108Z,31.45
2018-02-18T11:35:49.123Z,28.23
2018-02-18T11:36:52.171Z,27.44
2018-02-18T11:37:55.307Z,25.83
2018-02-18T11:38:58.314Z,25.31
2018-02-18T11:40:01.523Z,25.90
2018-02-18T11:41:04.778Z,26.42
2018-02-18T11:42:08.471Z,25.57
2018-02-18T11:43:11.686Z,24.92
2018-02-18T11:44:14.702Z,24.85
2018-02-18T11:45:17.719Z,25.34
2018-02-18T11:46:20.764Z,26.75
2018-02-18T11:47:23.785Z,27.33
2018-02-18T11:48:26.802Z,28.65
2018-02-18T11:49:29.821Z,30.52
2018-02-18T11:50:32.873Z,31.24
2018-02-18T11:51:35.912Z,32.23
2018-02-18T11:52:39.011Z,32.89
2018-02-18T11:53:42.032Z,33.54
2018-02-18T11:54:45.064Z,33.89
2018-02-18T11:55:48.140Z,37.85
2018-02-18T11:56:51.325Z,36.48
2018-02-18T11:57:54.374Z,36.15
2018-02-18T11:58:57.377Z,37.92
2018-02-18T12:00:00.520Z,36.87
2018-02-18T12:01:04.137Z,38.48
2018-02-18T12:02:07.143Z,40.76
2018-02-18T12:03:10.204Z,38.90
2018-02-18T12:04:13.208Z,40.46
2018-02-18T12:05:16.252Z,39.81
2018-02-18T12:06:19.263Z,39.78
2018-02-18T12:07:22.317Z,40.34
2018-02-18T12:08:25.361Z,41.45
2018-02-18T12:09:29.419Z,41.17
2018-02-18T12:10:32.438Z,41.49
2018-02-18T12:11:35.637Z,42.10
2018-02-18T12:12:38.717Z,43.23
2018-02-18T12:13:41.764Z,45.13
2018-02-18T12:14:44.780Z,42.51
2018-02-18T12:15:47.841Z,43.51
2018-02-18T12:16:50.872Z,44.52
2018-02-18T12:17:54.017Z,44.01
2018-02-18T12:18:57.132Z,45.91
2018-02-18T12:20:00.253Z,44.77
2018-02-18T12:21:03.853Z,45.62
2018-02-18T12:22:07.120Z,44.75
2018-02-18T12:23:10.095Z,46.02
2018-02-18T12:24:13.271Z,46.17
2018-02-18T12:25:16.354Z,45.30
2018-02-18T12:26:19.371Z,46.33
2018-02-18T12:27:22.381Z,45.84
2018-02-18T12:28:25.422Z,45.93
2018-02-18T12:29:28.431Z,45.62
2018-02-18T12:30:31.586Z,44.34
2018-02-18T12:31:34.581Z,43.99
2018-02-18T12:32:37.589Z,43.24
2018-02-18T12:33:40.645Z,42.95
2018-02-18T12:34:43.681Z,43.57
2018-02-18T12:35:46.708Z,45.26
2018-02-18T12:36:49.738Z,42.31
2018-02-18T12:37:52.749Z,41.78
2018-02-18T12:38:55.834Z,42.48
2018-02-18T12:39:58.853Z,42.01
2018-02-18T12:41:01.907Z,42.37
2018-02-18T12:42:05.336Z,42.63
2018-02-18T12:43:08.374Z,38.00
2018-02-18T12:44:11.392Z,32.54
2018-02-18T12:45:14.429Z,31.29
2018-02-18T12:46:17.488Z,34.80
2018-02-18T12:47:20.868Z,39.00
2018-02-18T12:48:23.925Z,37.19
2018-02-18T12:49:26.963Z,36.18
2018-02-18T12:50:29.976Z,37.95
2018-02-18T12:51:32.973Z,39.31
2018-02-18T12:52:36.008Z,40.06
2018-02-18T12:53:39.032Z,40.76
2018-02-18T12:54:42.268Z,41.12
2018-02-18T12:55:45.393Z,41.01
2018-02-18T12:56:48.420Z,41.45
2018-02-18T12:57:51.491Z,41.51
2018-02-18T12:58:54.503Z,41.49
2018-02-18T12:59:57.517Z,41.70
2018-02-18T13:01:00.538Z,41.63
2018-02-18T13:02:03.906Z,41.68
2018-02-18T13:03:06.919Z,41.55
2018-02-18T13:04:09.940Z,41.66
2018-02-18T13:05:12.967Z,41.77
2018-02-18T13:06:16.034Z,42.07
2018-02-18T13:07:19.118Z,42.23
2018-02-18T13:08:22.151Z,41.33
2018-02-18T13:09:25.191Z,40.12
2018-02-18T13:10:28.222Z,39.62
2018-02-18T13:11:31.614Z,40.78
2018-02-18T13:12:34.654Z,41.58
2018-02-18T13:13:37.670Z,41.63
2018-02-18T13:14:40.701Z,42.04
2018-02-18T13:15:43.731Z,42.13
2018-02-18T13:16:46.805Z,42.17
2018-02-18T13:17:50.710Z,41.99
2018-02-18T13:18:53.795Z,42.07
2018-02-18T13:19:56.904Z,42.08
2018-02-18T13:21:00.196Z,41.88
2018-02-18T13:22:03.732Z,41.94
2018-02-18T13:23:06.810Z,42.39
2018-02-18T13:24:09.858Z,42.45
2018-02-18T13:25:13.005Z,43.67
2018-02-18T13:26:18.661Z,40.96
2018-02-18T13:27:21.692Z,39.91
2018-02-18T13:28:25.433Z,40.75
2018-02-18T13:29:28.461Z,43.27
2018-02-18T13:30:31.469Z,43.51
2018-02-18T13:31:34.479Z,44.45
2018-02-18T13:32:38.060Z,41.85
2018-02-18T13:33:42.634Z,43.05
2018-02-18T13:34:46.441Z,41.80
2018-02-18T13:35:49.507Z,42.39
2018-02-18T13:36:52.926Z,40.17
2018-02-18T13:37:56.571Z,40.54
2018-02-18T13:39:00.261Z,42.06
2018-02-18T13:40:04.424Z,41.11
2018-02-18T13:41:07.593Z,40.29
2018-02-18T13:42:10.610Z,40.20
2018-02-18T13:43:14.778Z,40.60
2018-02-18T13:44:17.754Z,40.55
2018-02-18T13:45:22.595Z,42.67
2018-02-18T13:46:25.640Z,40.67
2018-02-18T13:47:28.658Z,40.04
2018-02-18T13:48:31.721Z,40.68
2018-02-18T13:49:35.316Z,40.57
2018-02-18T13:50:38.345Z,40.94
2018-02-18T13:51:41.405Z,41.00
2018-02-18T13:52:48.159Z,41.66
2018-02-18T13:53:51.325Z,41.59
2018-02-18T13:54:56.210Z,41.76
2018-02-18T13:55:59.655Z,43.76
2018-02-18T13:57:05.215Z,40.77
2018-02-18T13:58:08.957Z,41.96
2018-02-18T13:59:12.173Z,41.98
2018-02-18T14:00:16.024Z,41.67
2018-02-18T14:01:19.047Z,42.16
2018-02-18T14:02:22.049Z,41.89
2018-02-18T14:03:26.719Z,42.92
2018-02-18T14:04:29.852Z,42.37
2018-02-18T14:05:33.132Z,42.34
2018-02-18T14:06:36.924Z,42.34
2018-02-18T14:07:40.132Z,42.40
2018-02-18T14:08:43.699Z,42.36
2018-02-18T14:09:48.645Z,42.43
2018-02-18T14:10:51.825Z,42.60
2018-02-18T14:11:55.055Z,43.42
2018-02-18T14:12:58.112Z,43.03
2018-02-18T14:14:02.043Z,43.05
2018-02-18T14:15:06.166Z,43.01
2018-02-18T14:16:11.777Z,43.01
2018-02-18T14:17:15.132Z,42.93
2018-02-18T14:18:18.483Z,43.26
2018-02-18T14:19:21.492Z,43.35
2018-02-18T14:20:24.533Z,42.97
2018-02-18T14:21:28.473Z,43.07
2018-02-18T14:22:31.986Z,43.13
2018-02-18T14:23:35.142Z,43.09
2018-02-18T14:24:38.174Z,43.01
2018-02-18T14:25:41.244Z,42.85
2018-02-18T14:26:46.835Z,42.80
2018-02-18T14:27:55.624Z,42.78
2018-02-18T14:28:58.695Z,43.06
2018-02-18T14:30:02.641Z,42.88
2018-02-18T14:31:07.257Z,42.89
2018-02-18T14:32:10.316Z,42.95
2018-02-18T14:33:13.367Z,44.71
2018-02-18T14:34:16.968Z,44.59
2018-02-18T14:35:19.951Z,44.77
2018-02-18T14:36:23.501Z,43.57
2018-02-18T14:37:26.608Z,43.81
2018-02-18T14:38:29.634Z,43.86
2018-02-18T14:39:33.015Z,43.45
2018-02-18T14:40:37.251Z,43.34
2018-02-18T14:41:40.393Z,45.14
2018-02-18T14:42:43.499Z,43.53
2018-02-18T14:43:46.510Z,45.33
2018-02-18T14:44:49.866Z,43.34
2018-02-18T14:45:55.166Z,44.53
2018-02-18T14:46:58.207Z,43.19
2018-02-18T14:48:01.309Z,42.84
2018-02-18T14:49:06.082Z,43.23
2018-02-18T14:50:09.102Z,43.14
2018-02-18T14:51:12.282Z,42.83
2018-02-18T14:52:17.516Z,43.13
2018-02-18T14:53:20.560Z,42.94
2018-02-18T14:54:23.588Z,42.92
2018-02-18T14:55:26.752Z,42.99
2018-02-18T14:56:29.864Z,42.87
2018-02-18T14:57:33.586Z,42.81
2018-02-18T14:58:36.734Z,43.10
2018-02-18T14:59:39.842Z,42.99
2018-02-18T15:00:42.917Z,42.91
2018-02-18T15:01:46.429Z,43.07
2018-02-18T15:02:52.431Z,43.06
2018-02-18T15:03:55.674Z,43.30
2018-02-18T15:04:58.672Z,43.58
2018-02-18T15:06:01.719Z,44.05
2018-02-18T15:07:05.650Z,43.97
2018-02-18T15:08:08.712Z,44.11
2018-02-18T15:09:11.893Z,44.06
2018-02-18T15:10:16.612Z,44.06
2018-02-18T15:11:22.398Z,44.51
2018-02-18T15:12:26.084Z,44.26
2018-02-18T15:13:31.295Z,44.33
2018-02-18T15:14:35.672Z,44.50
2018-02-18T15:15:38.701Z,44.39
2018-02-18T15:16:41.738Z,44.61
2018-02-18T15:17:45.438Z,44.65
2018-02-18T15:18:49.366Z,44.81
2018-02-18T15:19:52.426Z,44.75
2018-02-18T15:20:56.844Z,44.92
2018-02-18T15:21:59.863Z,44.67
2018-02-18T15:23:03.311Z,44.59
2018-02-18T15:24:07.143Z,44.64
2018-02-18T15:25:10.143Z,44.70
2018-02-18T15:26:14.233Z,44.52
2018-02-18T15:27:17.681Z,44.85
2018-02-18T15:28:20.735Z,44.96
2018-02-18T15:29:23.778Z,44.94
2018-02-18T15:30:26.830Z,44.79
2018-02-18T15:31:29.900Z,44.91
2018-02-18T15:32:33.761Z,45.10
2018-02-18T15:33:36.780Z,45.20
2018-02-18T15:34:39.831Z,44.90
2018-02-18T15:35:42.844Z,45.46
2018-02-18T15:36:46.203Z,45.04
2018-02-18T15:37:49.275Z,44.80
2018-02-18T15:38:52.392Z,44.70
2018-02-18T15:39:56.331Z,44.68
2018-02-18T15:40:59.445Z,44.56
2018-02-18T15:42:02.602Z,44.54
2018-02-18T15:43:06.108Z,44.58
2018-02-18T15:44:09.224Z,44.61
2018-02-18T15:45:12.267Z,44.63
2018-02-18T15:46:15.415Z,44.55
2018-02-18T15:47:18.448Z,44.56
2018-02-18T15:48:21.479Z,44.70
2018-02-18T15:49:25.077Z,44.62
2018-02-18T15:50:28.164Z,44.66
2018-02-18T15:51:31.248Z,44.62
2018-02-18T15:52:34.356Z,44.62
2018-02-18T15:53:37.700Z,44.61
2018-02-18T15:54:40.729Z,44.66
2018-02-18T15:55:44.149Z,44.57
2018-02-18T15:56:47.609Z,44.72
2018-02-18T15:57:52.930Z,44.79
2018-02-18T15:58:56.047Z,44.69
2018-02-18T15:59:59.060Z,44.96
2018-02-18T16:01:02.135Z,44.89
2018-02-18T16:02:06.669Z,45.05
2018-02-18T16:03:09.692Z,44.96
2018-02-18T16:04:12.845Z,45.00
2018-02-18T16:05:15.966Z,45.03
2018-02-18T16:06:19.107Z,44.99
2018-02-18T16:07:22.184Z,44.89
2018-02-18T16:08:25.246Z,44.84
2018-02-18T16:09:28.960Z,44.91
2018-02-18T16:10:31.963Z,44.87
2018-02-18T16:11:36.127Z,44.94
2018-02-18T16:12:39.138Z,45.02
2018-02-18T16:13:42.247Z,44.87
2018-02-18T16:14:45.658Z,44.85
2018-02-18T16:15:48.708Z,44.87
2018-02-18T16:16:51.863Z,44.70
2018-02-18T16:17:54.957Z,45.00
2018-02-18T16:18:57.994Z,44.89
2018-02-18T16:20:01.001Z,45.35
2018-02-18T16:21:05.745Z,45.16
2018-02-18T16:22:08.770Z,44.80
2018-02-18T16:23:11.824Z,44.86
2018-02-18T16:24:14.835Z,44.68
2018-02-18T16:25:18.300Z,44.62
2018-02-18T16:26:21.317Z,45.01
2018-02-18T16:27:24.845Z,45.20
2018-02-18T16:28:28.034Z,45.20
2018-02-18T16:29:31.042Z,44.82
2018-02-18T16:30:34.058Z,44.76
2018-02-18T16:31:37.099Z,44.77
2018-02-18T16:32:40.167Z,44.63
2018-02-18T16:33:43.697Z,45.09
2018-02-18T16:34:46.909Z,45.13
2018-02-18T16:35:50.031Z,44.89
2018-02-18T16:36:53.079Z,44.95
2018-02-18T16:37:56.858Z,44.85
2018-02-18T16:39:00.108Z,44.95
2018-02-18T16:40:03.246Z,44.90
2018-02-18T16:41:06.504Z,44.76
2018-02-18T16:42:11.891Z,44.90
2018-02-18T16:43:15.333Z,44.94
2018-02-18T16:44:18.532Z,45.06
2018-02-18T16:45:21.561Z,44.95
2018-02-18T16:46:25.983Z,45.01
2018-02-18T16:47:29.066Z,45.04
2018-02-18T16:48:32.138Z,45.02
2018-02-18T16:49:36.187Z,45.17
2018-02-18T16:50:39.203Z,45.14
2018-02-18T16:51:42.325Z,44.99
2018-02-18T16:52:47.336Z,45.36
2018-02-18T16:53:50.415Z,45.33
2018-02-18T16:54:54.509Z,45.06
2018-02-18T16:55:57.884Z,45.03
2018-02-18T16:57:00.911Z,45.00
2018-02-18T16:58:05.994Z,45.60
2018-02-18T16:59:09.131Z,45.55
2018-02-18T23:33:32.637Z,54.71
2018-02-18T23:35:56.570Z,53.15
2018-02-18T23:48:29.644Z,52.05
2018-02-18T23:50:49.833Z,51.51
